sensor_id;sensor_type;location;lat;lon;timestamp;P1;durP1;ratioP1;P2;durP2;ratioP2
24301;SDS011;12421;49.732;20.078;2023-03-31T00:01:08;12.20;;;7.90;;
24301;SDS011;12421;49.732;20.078;2023-03-31T00:11:12;13.10;;;8.10;;
24301;SDS011;12421;49.732;20.078;2023-03-31T00:21:21;13.50;;;7.80;;
24301;SDS011;12421;49.732;20.078;2023-03-31T00:31:32;11.50;;;8.10;;
24301;SDS011;12421;49.732;20.078;2023-03-31T00:41:37;14.20;;;8.60;;
24301;SDS011;12421;49.732;20.078;2023-03-31T00:51:43;13.80;;;8.80;;
24301;SDS011;12421;49.732;20.078;2023-03-31T01:01:48;13.60;;;7.60;;
24301;SDS011;12421;49.732;20.078;2023-03-31T01:11:53;9.50;;;6.90;;
24301;SDS011;12421;49.732;20.078;2023-03-31T01:22:07;10.70;;;6.50;;
24301;SDS011;12421;49.732;20.078;2023-03-31T01:32:48;12.00;;;8.30;;
24301;SDS011;12421;49.732;20.078;2023-03-31T01:53:22;10.40;;;6.60;;
24301;SDS011;12421;49.732;20.078;2023-03-31T02:03:33;9.40;;;6.10;;
24301;SDS011;12421;49.732;20.078;2023-03-31T02:13:44;11.30;;;6.90;;
24301;SDS011;12421;49.732;20.078;2023-03-31T02:23:51;9.80;;;6.70;;
24301;SDS011;12421;49.732;20.078;2023-03-31T02:33:58;10.40;;;7.10;;
24301;SDS011;12421;49.732;20.078;2023-03-31T02:44:01;9.30;;;6.20;;
24301;SDS011;12421;49.732;20.078;2023-03-31T03:04:57;9.30;;;5.80;;
24301;SDS011;12421;49.732;20.078;2023-03-31T03:15:19;9.40;;;5.90;;
24301;SDS011;12421;49.732;20.078;2023-03-31T03:25:30;9.00;;;6.30;;
24301;SDS011;12421;49.732;20.078;2023-03-31T03:35:34;11.70;;;6.20;;
24301;SDS011;12421;49.732;20.078;2023-03-31T03:45:37;8.70;;;6.70;;
24301;SDS011;12421;49.732;20.078;2023-03-31T03:55:41;7.80;;;6.10;;
24301;SDS011;12421;49.732;20.078;2023-03-31T04:05:45;10.50;;;6.90;;
24301;SDS011;12421;49.732;20.078;2023-03-31T04:15:51;8.20;;;6.00;;
24301;SDS011;12421;49.732;20.078;2023-03-31T04:25:55;8.40;;;6.50;;
24301;SDS011;12421;49.732;20.078;2023-03-31T04:35:59;8.80;;;6.00;;
24301;SDS011;12421;49.732;20.078;2023-03-31T04:46:08;7.40;;;5.10;;
24301;SDS011;12421;49.732;20.078;2023-03-31T04:56:12;7.70;;;5.30;;
24301;SDS011;12421;49.732;20.078;2023-03-31T05:06:15;9.90;;;4.80;;
24301;SDS011;12421;49.732;20.078;2023-03-31T05:16:19;9.60;;;6.80;;
24301;SDS011;12421;49.732;20.078;2023-03-31T05:26:23;10.30;;;5.60;;
24301;SDS011;12421;49.732;20.078;2023-03-31T05:36:27;9.40;;;6.50;;
24301;SDS011;12421;49.732;20.078;2023-03-31T05:46:31;11.80;;;7.10;;
24301;SDS011;12421;49.732;20.078;2023-03-31T05:56:34;9.80;;;6.70;;
24301;SDS011;12421;49.732;20.078;2023-03-31T06:06:37;6.50;;;4.80;;
24301;SDS011;12421;49.732;20.078;2023-03-31T06:16:40;14.30;;;9.40;;
24301;SDS011;12421;49.732;20.078;2023-03-31T06:26:44;8.80;;;5.30;;
24301;SDS011;12421;49.732;20.078;2023-03-31T06:36:47;8.40;;;4.70;;
24301;SDS011;12421;49.732;20.078;2023-03-31T06:46:50;7.80;;;4.90;;
24301;SDS011;12421;49.732;20.078;2023-03-31T06:56:53;7.80;;;3.80;;
24301;SDS011;12421;49.732;20.078;2023-03-31T07:06:57;7.50;;;4.50;;
24301;SDS011;12421;49.732;20.078;2023-03-31T07:17:01;6.00;;;3.20;;
24301;SDS011;12421;49.732;20.078;2023-03-31T07:27:05;4.90;;;3.20;;
24301;SDS011;12421;49.732;20.078;2023-03-31T07:37:08;7.00;;;3.30;;
24301;SDS011;12421;49.732;20.078;2023-03-31T07:47:11;6.50;;;2.60;;
24301;SDS011;12421;49.732;20.078;2023-03-31T07:57:14;5.50;;;3.10;;
24301;SDS011;12421;49.732;20.078;2023-03-31T08:07:19;6.70;;;2.40;;
24301;SDS011;12421;49.732;20.078;2023-03-31T08:17:22;4.10;;;1.90;;
24301;SDS011;12421;49.732;20.078;2023-03-31T08:27:26;3.50;;;1.80;;
24301;SDS011;12421;49.732;20.078;2023-03-31T08:37:29;4.00;;;1.50;;
24301;SDS011;12421;49.732;20.078;2023-03-31T08:47:33;3.40;;;1.70;;
24301;SDS011;12421;49.732;20.078;2023-03-31T09:08:20;4.70;;;1.80;;
24301;SDS011;12421;49.732;20.078;2023-03-31T09:18:35;5.70;;;2.10;;
24301;SDS011;12421;49.732;20.078;2023-03-31T09:28:41;4.70;;;1.80;;
24301;SDS011;12421;49.732;20.078;2023-03-31T09:38:45;5.60;;;1.40;;
24301;SDS011;12421;49.732;20.078;2023-03-31T09:48:51;5.70;;;1.30;;
24301;SDS011;12421;49.732;20.078;2023-03-31T09:59:02;4.40;;;1.60;;
24301;SDS011;12421;49.732;20.078;2023-03-31T10:09:08;3.90;;;1.40;;
24301;SDS011;12421;49.732;20.078;2023-03-31T10:19:20;2.60;;;1.20;;
24301;SDS011;12421;49.732;20.078;2023-03-31T10:29:28;5.90;;;1.50;;
24301;SDS011;12421;49.732;20.078;2023-03-31T10:39:34;5.10;;;1.50;;
24301;SDS011;12421;49.732;20.078;2023-03-31T10:49:39;5.50;;;1.20;;
24301;SDS011;12421;49.732;20.078;2023-03-31T11:30:42;5.30;;;1.70;;
24301;SDS011;12421;49.732;20.078;2023-03-31T11:51:20;6.10;;;1.30;;
24301;SDS011;12421;49.732;20.078;2023-03-31T12:01:31;4.30;;;1.30;;
24301;SDS011;12421;49.732;20.078;2023-03-31T12:32:16;5.20;;;1.90;;
24301;SDS011;12421;49.732;20.078;2023-03-31T12:42:41;5.10;;;1.50;;
24301;SDS011;12421;49.732;20.078;2023-03-31T13:13:36;4.10;;;1.20;;
24301;SDS011;12421;49.732;20.078;2023-03-31T13:24:02;5.60;;;1.90;;
24301;SDS011;12421;49.732;20.078;2023-03-31T13:34:08;3.60;;;1.20;;
24301;SDS011;12421;49.732;20.078;2023-03-31T13:44:33;5.30;;;2.20;;
24301;SDS011;12421;49.732;20.078;2023-03-31T14:15:16;6.70;;;1.80;;
24301;SDS011;12421;49.732;20.078;2023-03-31T14:46:07;3.70;;;1.90;;
24301;SDS011;12421;49.732;20.078;2023-03-31T14:56:13;7.00;;;2.20;;
24301;SDS011;12421;49.732;20.078;2023-03-31T15:06:23;5.50;;;2.80;;
24301;SDS011;12421;49.732;20.078;2023-03-31T15:26:47;5.10;;;2.10;;
24301;SDS011;12421;49.732;20.078;2023-03-31T15:36:58;6.20;;;2.90;;
24301;SDS011;12421;49.732;20.078;2023-03-31T15:47:10;5.30;;;2.50;;
24301;SDS011;12421;49.732;20.078;2023-03-31T15:57:17;3.80;;;1.80;;
24301;SDS011;12421;49.732;20.078;2023-03-31T16:07:25;6.20;;;2.90;;
24301;SDS011;12421;49.732;20.078;2023-03-31T16:17:50;5.40;;;2.60;;
24301;SDS011;12421;49.732;20.078;2023-03-31T16:27:57;5.60;;;2.80;;
24301;SDS011;12421;49.732;20.078;2023-03-31T16:38:06;4.80;;;2.10;;
24301;SDS011;12421;49.732;20.078;2023-03-31T16:48:11;4.00;;;1.90;;
24301;SDS011;12421;49.732;20.078;2023-03-31T16:58:19;5.90;;;2.20;;
24301;SDS011;12421;49.732;20.078;2023-03-31T17:08:25;5.70;;;2.10;;
24301;SDS011;12421;49.732;20.078;2023-03-31T17:18:29;6.70;;;2.90;;
24301;SDS011;12421;49.732;20.078;2023-03-31T17:28:33;6.90;;;2.40;;
24301;SDS011;12421;49.732;20.078;2023-03-31T17:38:37;3.50;;;1.70;;
24301;SDS011;12421;49.732;20.078;2023-03-31T17:48:42;6.40;;;3.40;;
24301;SDS011;12421;49.732;20.078;2023-03-31T17:58:45;8.10;;;4.90;;
24301;SDS011;12421;49.732;20.078;2023-03-31T18:08:48;8.40;;;4.40;;
24301;SDS011;12421;49.732;20.078;2023-03-31T18:18:51;8.20;;;4.00;;
24301;SDS011;12421;49.732;20.078;2023-03-31T18:28:54;8.70;;;4.00;;
24301;SDS011;12421;49.732;20.078;2023-03-31T18:38:59;11.60;;;6.60;;
24301;SDS011;12421;49.732;20.078;2023-03-31T18:49:03;10.00;;;5.50;;
24301;SDS011;12421;49.732;20.078;2023-03-31T18:59:10;10.60;;;5.10;;
24301;SDS011;12421;49.732;20.078;2023-03-31T19:09:13;8.00;;;4.20;;
24301;SDS011;12421;49.732;20.078;2023-03-31T19:19:16;8.50;;;3.80;;
24301;SDS011;12421;49.732;20.078;2023-03-31T19:29:19;8.00;;;3.80;;
24301;SDS011;12421;49.732;20.078;2023-03-31T19:39:25;8.00;;;4.00;;
24301;SDS011;12421;49.732;20.078;2023-03-31T19:49:29;6.20;;;3.30;;
24301;SDS011;12421;49.732;20.078;2023-03-31T19:59:33;7.60;;;4.50;;
24301;SDS011;12421;49.732;20.078;2023-03-31T20:09:37;8.70;;;4.50;;
24301;SDS011;12421;49.732;20.078;2023-03-31T20:19:40;8.90;;;4.80;;
24301;SDS011;12421;49.732;20.078;2023-03-31T20:29:44;8.40;;;4.40;;
24301;SDS011;12421;49.732;20.078;2023-03-31T20:39:47;10.80;;;4.30;;
24301;SDS011;12421;49.732;20.078;2023-03-31T20:49:51;7.50;;;4.10;;
24301;SDS011;12421;49.732;20.078;2023-03-31T20:59:54;8.70;;;4.90;;
24301;SDS011;12421;49.732;20.078;2023-03-31T21:09:59;7.50;;;4.20;;
24301;SDS011;12421;49.732;20.078;2023-03-31T21:20:02;7.20;;;4.40;;
24301;SDS011;12421;49.732;20.078;2023-03-31T21:30:07;7.00;;;4.50;;
24301;SDS011;12421;49.732;20.078;2023-03-31T21:40:11;9.00;;;4.50;;
24301;SDS011;12421;49.732;20.078;2023-03-31T21:50:16;8.80;;;4.80;;
24301;SDS011;12421;49.732;20.078;2023-03-31T22:00:19;9.40;;;4.60;;
24301;SDS011;12421;49.732;20.078;2023-03-31T22:10:22;10.80;;;5.20;;
24301;SDS011;12421;49.732;20.078;2023-03-31T22:20:25;8.60;;;5.30;;
24301;SDS011;12421;49.732;20.078;2023-03-31T22:30:28;7.60;;;5.10;;
24301;SDS011;12421;49.732;20.078;2023-03-31T22:40:33;6.00;;;2.60;;
24301;SDS011;12421;49.732;20.078;2023-03-31T22:50:39;6.80;;;3.50;;
24301;SDS011;12421;49.732;20.078;2023-03-31T23:00:45;5.20;;;2.60;;
24301;SDS011;12421;49.732;20.078;2023-03-31T23:10:58;5.20;;;2.40;;
24301;SDS011;12421;49.732;20.078;2023-03-31T23:21:06;4.40;;;2.00;;
24301;SDS011;12421;49.732;20.078;2023-03-31T23:31:09;5.80;;;1.80;;
24301;SDS011;12421;49.732;20.078;2023-03-31T23:41:13;5.20;;;1.70;;
24301;SDS011;12421;49.732;20.078;2023-03-31T23:51:18;5.70;;;2.10;;
